createdAt,value
2023-02-27T00:01:46.553Z,-1.27
2023-02-27T00:04:14.965Z,-1.28
2023-02-27T00:06:43.127Z,-1.38
2023-02-27T00:09:11.279Z,-1.29
2023-02-27T00:11:41.178Z,-1.36
2023-02-27T00:14:10.814Z,-1.33
2023-02-27T00:16:39.243Z,-1.43
2023-02-27T00:19:07.516Z,-1.38
2023-02-27T00:21:36.899Z,-1.47
2023-02-27T00:24:05.787Z,-1.39
2023-02-27T00:26:33.933Z,-1.44
2023-02-27T00:29:01.986Z,-1.51
2023-02-27T00:31:31.584Z,-1.45
2023-02-27T00:33:59.910Z,-1.46
2023-02-27T00:36:28.173Z,-1.51
2023-02-27T00:38:56.402Z,-1.44
2023-02-27T00:41:24.859Z,-1.44
2023-02-27T00:43:54.342Z,-1.46
2023-02-27T00:46:22.484Z,-1.42
2023-02-27T00:48:52.076Z,-1.46
2023-02-27T00:51:21.999Z,-1.52
2023-02-27T00:53:50.181Z,-1.54
2023-02-27T00:56:18.292Z,-1.49
2023-02-27T00:58:46.230Z,-1.55
2023-02-27T01:01:15.480Z,-1.55
2023-02-27T01:03:44.896Z,-1.55
2023-02-27T01:06:14.308Z,-1.50
2023-02-27T01:08:42.513Z,-1.57
2023-02-27T01:11:10.727Z,-1.66
2023-02-27T01:13:38.727Z,-1.57
2023-02-27T01:16:08.717Z,-1.57
2023-02-27T01:18:36.915Z,-1.53
2023-02-27T01:21:05.956Z,-1.48
2023-02-27T01:23:35.484Z,-1.52
2023-02-27T01:26:03.575Z,-1.59
2023-02-27T01:28:31.654Z,-1.57
2023-02-27T01:30:59.726Z,-1.58
2023-02-27T01:33:28.112Z,-1.61
2023-02-27T01:35:56.292Z,-1.50
2023-02-27T01:38:24.626Z,-1.58
2023-02-27T01:40:54.871Z,-1.52
2023-02-27T01:43:23.677Z,-1.55
2023-02-27T01:45:53.050Z,-1.59
2023-02-27T01:48:25.971Z,-1.67
2023-02-27T01:50:57.722Z,-1.64
2023-02-27T01:53:27.862Z,-1.68
2023-02-27T01:56:01.699Z,-1.52
2023-02-27T01:58:29.926Z,-1.58
2023-02-27T02:00:58.943Z,-1.65
2023-02-27T02:03:34.435Z,-1.62
2023-02-27T02:06:06.182Z,-1.59
2023-02-27T02:08:38.019Z,-1.61
2023-02-27T02:11:09.181Z,-1.68
2023-02-27T02:13:39.138Z,-1.63
2023-02-27T02:16:24.010Z,-1.63
2023-02-27T02:19:01.427Z,-1.68
2023-02-27T02:21:51.159Z,-1.57
2023-02-27T02:24:56.517Z,-1.57
2023-02-27T02:27:43.971Z,-1.67
2023-02-27T02:30:39.870Z,-1.68
2023-02-27T02:33:44.565Z,-1.66
2023-02-27T02:36:47.135Z,-1.56
2023-02-27T02:39:33.631Z,-1.61
2023-02-27T02:42:06.329Z,-1.59
2023-02-27T02:44:48.906Z,-1.62
2023-02-27T02:47:26.763Z,-1.63
2023-02-27T02:49:59.165Z,-1.66
2023-02-27T02:52:39.724Z,-1.74
2023-02-27T02:55:15.153Z,-1.66
2023-02-27T02:57:49.477Z,-1.66
2023-02-27T03:00:21.668Z,-1.67
2023-02-27T03:02:56.529Z,-1.68
2023-02-27T03:05:29.492Z,-1.76
2023-02-27T03:08:02.286Z,-1.69
2023-02-27T03:10:36.327Z,-1.80
2023-02-27T03:13:09.552Z,-1.76
2023-02-27T03:15:46.292Z,-1.72
2023-02-27T03:18:20.871Z,-1.82
2023-02-27T03:20:54.101Z,-1.82
2023-02-27T03:23:29.543Z,-1.74
2023-02-27T03:25:59.792Z,-1.80
2023-02-27T03:28:33.492Z,-1.69
2023-02-27T03:31:10.154Z,-1.83
2023-02-27T03:33:47.607Z,-1.86
2023-02-27T03:36:27.688Z,-1.84
2023-02-27T03:39:02.400Z,-1.82
2023-02-27T03:41:35.949Z,-1.89
2023-02-27T03:44:11.543Z,-1.94
2023-02-27T03:46:39.916Z,-1.90
2023-02-27T03:49:08.675Z,-1.90
2023-02-27T03:51:37.740Z,-1.84
2023-02-27T03:54:11.008Z,-1.86
2023-02-27T03:56:46.046Z,-1.93
2023-02-27T03:59:16.375Z,-1.85
2023-02-27T04:01:45.468Z,-1.94
2023-02-27T04:04:15.777Z,-1.87
2023-02-27T04:07:05.046Z,-1.95
2023-02-27T04:09:50.550Z,-1.98
2023-02-27T04:12:54.316Z,-1.94
2023-02-27T04:15:30.291Z,-1.91
2023-02-27T04:18:07.275Z,-1.93
2023-02-27T04:20:44.108Z,-1.99
2023-02-27T04:23:19.045Z,-2.05
2023-02-27T04:26:00.933Z,-2.00
2023-02-27T04:28:40.767Z,-1.95
2023-02-27T04:31:18.334Z,-1.93
2023-02-27T04:33:52.008Z,-1.98
2023-02-27T04:36:26.397Z,-2.03
2023-02-27T04:39:04.911Z,-2.03
2023-02-27T04:41:39.641Z,-2.08
2023-02-27T04:44:12.032Z,-2.04
2023-02-27T04:46:43.680Z,-2.10
2023-02-27T04:49:17.184Z,-2.19
2023-02-27T04:51:52.016Z,-2.14
2023-02-27T04:54:26.537Z,-2.15
2023-02-27T04:56:59.152Z,-2.19
2023-02-27T04:59:32.273Z,-2.09
2023-02-27T05:02:04.046Z,-2.09
2023-02-27T05:04:37.064Z,-2.09
2023-02-27T05:07:09.524Z,-2.05
2023-02-27T05:09:43.814Z,-2.10
2023-02-27T05:12:17.848Z,-2.15
2023-02-27T05:14:52.166Z,-2.18
2023-02-27T05:17:24.062Z,-2.18
2023-02-27T05:19:52.447Z,-2.18
2023-02-27T05:22:28.885Z,-2.21
2023-02-27T05:25:04.176Z,-2.17
2023-02-27T05:27:37.775Z,-2.20
2023-02-27T05:30:17.281Z,-2.23
2023-02-27T05:32:52.870Z,-2.23
2023-02-27T05:35:28.918Z,-2.38
2023-02-27T05:38:05.802Z,-2.23
2023-02-27T05:40:38.320Z,-2.23
2023-02-27T05:43:11.897Z,-2.28
2023-02-27T05:45:44.895Z,-2.35
2023-02-27T05:48:19.439Z,-2.17
2023-02-27T05:50:51.950Z,-2.36
2023-02-27T05:53:23.132Z,-2.30
2023-02-27T05:55:54.607Z,-2.34
2023-02-27T05:58:28.004Z,-2.30
2023-02-27T06:01:00.018Z,-2.27
2023-02-27T06:03:29.589Z,-2.36
2023-02-27T06:06:00.472Z,-2.34
2023-02-27T06:08:29.132Z,-2.36
2023-02-27T06:10:57.408Z,-2.33
2023-02-27T06:13:27.172Z,-2.34
2023-02-27T06:15:55.157Z,-2.33
2023-02-27T06:18:24.479Z,-2.30
2023-02-27T06:20:53.226Z,-2.14
2023-02-27T06:23:21.315Z,-2.28
2023-02-27T06:25:50.688Z,-2.17
2023-02-27T06:28:18.673Z,-2.18
2023-02-27T06:30:46.754Z,-2.19
2023-02-27T06:33:14.919Z,-2.18
2023-02-27T06:35:45.140Z,-2.20
2023-02-27T06:38:13.212Z,-2.20
2023-02-27T06:40:41.130Z,-2.30
2023-02-27T06:43:09.561Z,-2.24
2023-02-27T06:45:38.535Z,-2.24
2023-02-27T06:48:07.212Z,-2.17
2023-02-27T06:50:35.273Z,-2.16
2023-02-27T06:53:04.807Z,-2.23
2023-02-27T06:55:32.998Z,-2.16
2023-02-27T06:58:01.474Z,-2.22
2023-02-27T07:00:30.170Z,-2.10
2023-02-27T07:02:58.184Z,-2.10
2023-02-27T07:05:26.199Z,-2.00
2023-02-27T07:07:54.187Z,-2.04
2023-02-27T07:10:27.140Z,-2.02
2023-02-27T07:12:55.643Z,-2.01
2023-02-27T07:15:23.900Z,-1.94
2023-02-27T07:17:51.897Z,-1.94
2023-02-27T07:20:19.836Z,-1.93
2023-02-27T07:22:47.787Z,-1.87
2023-02-27T07:25:15.844Z,-1.88
2023-02-27T07:27:46.307Z,-1.75
2023-02-27T07:30:14.978Z,-1.78
2023-02-27T07:32:42.912Z,-1.71
2023-02-27T07:35:11.968Z,-1.64
2023-02-27T07:37:40.400Z,-1.54
2023-02-27T07:40:10.195Z,-1.46
2023-02-27T07:42:38.163Z,-1.38
2023-02-27T07:45:08.936Z,-1.28
2023-02-27T07:47:37.574Z,-1.22
2023-02-27T07:50:06.315Z,-1.11
2023-02-27T07:52:34.321Z,-1.03
2023-02-27T07:55:02.297Z,-0.88
2023-02-27T07:57:30.448Z,-0.84
2023-02-27T07:59:58.450Z,-0.70
2023-02-27T08:02:28.027Z,-0.64
2023-02-27T08:04:55.991Z,-0.51
2023-02-27T08:07:23.949Z,-0.48
2023-02-27T08:09:51.968Z,-0.43
2023-02-27T08:12:19.900Z,-0.28
2023-02-27T08:14:47.837Z,-0.26
2023-02-27T08:17:16.322Z,-0.12
2023-02-27T08:19:45.789Z,-0.02
2023-02-27T08:22:14.004Z,0.06
2023-02-27T08:24:42.351Z,0.16
2023-02-27T08:27:10.289Z,0.20
2023-02-27T08:29:38.557Z,0.32
2023-02-27T08:32:06.737Z,0.49
2023-02-27T08:34:34.711Z,0.48
2023-02-27T08:37:04.433Z,0.58
2023-02-27T08:39:32.616Z,0.69
2023-02-27T08:42:00.894Z,0.70
2023-02-27T08:44:28.866Z,0.82
2023-02-27T08:46:57.172Z,0.85
2023-02-27T08:49:25.868Z,0.92
2023-02-27T08:51:54.182Z,1.02
2023-02-27T08:54:23.477Z,1.13
2023-02-27T08:56:51.395Z,1.29
2023-02-27T08:59:19.628Z,1.35
2023-02-27T09:01:47.593Z,1.37
2023-02-27T09:04:16.250Z,1.47
2023-02-27T09:06:44.200Z,1.56
2023-02-27T09:09:12.518Z,1.58
2023-02-27T09:11:42.207Z,1.74
2023-02-27T09:14:10.569Z,1.75
2023-02-27T09:16:38.652Z,1.93
2023-02-27T09:19:07.051Z,1.98
2023-02-27T09:21:35.214Z,2.08
2023-02-27T09:24:13.704Z,2.22
2023-02-27T09:26:48.801Z,2.28
2023-02-27T09:29:17.611Z,2.22
2023-02-27T09:31:46.184Z,2.36
2023-02-27T09:34:14.240Z,2.43
2023-02-27T09:36:42.440Z,2.47
2023-02-27T09:39:10.936Z,2.60
2023-02-27T09:41:49.382Z,2.68
2023-02-27T09:44:39.753Z,2.84
2023-02-27T09:47:18.082Z,2.84
2023-02-27T09:49:57.412Z,2.95
2023-02-27T09:52:25.368Z,2.77
2023-02-27T09:54:55.203Z,2.73
2023-02-27T09:57:34.931Z,2.83
2023-02-27T10:00:15.170Z,2.90
2023-02-27T10:02:56.025Z,2.90
2023-02-27T10:05:32.173Z,2.85
2023-02-27T10:08:10.258Z,3.14
2023-02-27T10:10:45.437Z,3.05
2023-02-27T10:13:31.922Z,3.05
2023-02-27T10:16:02.273Z,3.21
2023-02-27T10:18:32.990Z,3.29
2023-02-27T10:21:04.485Z,3.48
2023-02-27T10:23:41.696Z,3.58
2023-02-27T10:26:20.063Z,3.63
2023-02-27T10:28:48.230Z,3.51
2023-02-27T10:31:21.812Z,3.76
2023-02-27T10:33:49.838Z,3.77
2023-02-27T10:36:33.140Z,3.82
2023-02-27T10:39:06.164Z,3.89
2023-02-27T10:41:35.981Z,4.09
2023-02-27T10:44:05.012Z,4.17
2023-02-27T10:46:38.332Z,4.36
2023-02-27T10:49:18.708Z,4.40
2023-02-27T10:51:48.280Z,4.56
2023-02-27T10:54:23.626Z,4.80
2023-02-27T10:56:53.613Z,4.67
2023-02-27T10:59:24.784Z,4.58
2023-02-27T11:01:56.542Z,4.76
2023-02-27T11:04:27.931Z,4.90
2023-02-27T11:06:56.651Z,4.93
2023-02-27T11:09:27.577Z,5.15
2023-02-27T11:11:57.146Z,4.93
2023-02-27T11:14:29.032Z,4.86
2023-02-27T11:17:00.632Z,4.70
2023-02-27T11:19:34.944Z,4.73
2023-02-27T11:22:05.853Z,4.93
2023-02-27T11:24:34.813Z,5.08
2023-02-27T11:27:06.454Z,5.14
2023-02-27T11:29:36.073Z,4.95
2023-02-27T11:32:15.167Z,5.15
2023-02-27T11:34:50.836Z,5.10
2023-02-27T11:37:26.736Z,5.31
2023-02-27T11:40:04.812Z,5.48
2023-02-27T11:42:35.640Z,5.29
2023-02-27T11:45:06.977Z,5.43
2023-02-27T11:47:39.717Z,5.48
2023-02-27T11:50:41.024Z,5.60
2023-02-27T11:53:27.162Z,5.45
2023-02-27T11:55:59.515Z,5.16
2023-02-27T11:58:33.837Z,4.88
2023-02-27T12:01:06.856Z,4.82
2023-02-27T12:03:47.504Z,5.00
2023-02-27T12:06:20.705Z,5.22
2023-02-27T12:08:54.383Z,5.17
2023-02-27T12:11:28.318Z,5.05
2023-02-27T12:14:03.084Z,4.67
2023-02-27T12:16:39.102Z,4.69
2023-02-27T12:19:17.538Z,4.65
2023-02-27T12:21:49.777Z,4.96
2023-02-27T12:24:23.394Z,5.29
2023-02-27T12:26:57.366Z,5.15
2023-02-27T12:29:31.924Z,5.16
2023-02-27T12:32:05.296Z,5.07
2023-02-27T12:34:41.963Z,5.12
2023-02-27T12:37:13.453Z,4.79
2023-02-27T12:39:44.076Z,4.78
2023-02-27T12:42:54.950Z,4.50
2023-02-27T12:45:54.288Z,4.19
2023-02-27T12:48:33.820Z,4.15
2023-02-27T12:51:16.707Z,4.06
2023-02-27T12:54:02.492Z,4.05
2023-02-27T12:56:41.248Z,3.95
2023-02-27T12:59:22.423Z,3.87
2023-02-27T13:02:00.664Z,3.78
2023-02-27T13:04:39.063Z,3.86
2023-02-27T13:07:17.555Z,3.86
2023-02-27T13:09:50.402Z,3.87
2023-02-27T13:12:26.069Z,3.87
2023-02-27T13:14:58.963Z,4.18
2023-02-27T13:17:32.659Z,4.28
2023-02-27T13:20:06.326Z,4.21
2023-02-27T13:22:42.576Z,4.05
2023-02-27T13:25:15.835Z,4.30
2023-02-27T13:27:48.025Z,4.23
2023-02-27T13:30:23.894Z,4.01
2023-02-27T13:33:03.944Z,4.08
2023-02-27T13:35:44.555Z,3.89
2023-02-27T13:38:43.729Z,3.80
2023-02-27T13:41:38.524Z,3.69
2023-02-27T13:44:50.132Z,3.72
2023-02-27T13:47:41.047Z,3.78
2023-02-27T13:50:46.603Z,3.77
2023-02-27T13:53:19.502Z,3.93
2023-02-27T13:55:49.000Z,3.96
2023-02-27T13:58:20.231Z,3.88
2023-02-27T14:01:01.027Z,4.01
2023-02-27T14:03:32.290Z,4.16
2023-02-27T14:06:06.907Z,4.25
2023-02-27T14:08:47.963Z,4.07
2023-02-27T14:11:23.301Z,4.15
2023-02-27T14:14:05.820Z,4.28
2023-02-27T14:17:00.120Z,4.14
2023-02-27T14:19:59.520Z,3.86
2023-02-27T14:22:40.714Z,3.82
2023-02-27T14:25:31.998Z,3.54
2023-02-27T14:28:03.430Z,3.77
2023-02-27T14:30:35.087Z,4.01
2023-02-27T14:33:12.957Z,4.12
2023-02-27T14:35:45.500Z,4.03
2023-02-27T14:38:18.402Z,4.11
2023-02-27T14:40:58.106Z,3.96
2023-02-27T14:43:36.615Z,3.99
2023-02-27T14:46:14.049Z,3.88
2023-02-27T14:48:42.149Z,3.54
2023-02-27T14:51:10.012Z,3.44
2023-02-27T14:53:38.217Z,3.39
2023-02-27T14:56:06.604Z,3.12
2023-02-27T14:58:35.897Z,3.14
2023-02-27T15:01:08.005Z,3.21
2023-02-27T15:03:42.181Z,3.35
2023-02-27T15:06:18.296Z,3.32
2023-02-27T15:08:49.731Z,3.30
2023-02-27T15:11:19.727Z,3.20
2023-02-27T15:13:52.139Z,3.17
2023-02-27T15:16:23.046Z,3.10
2023-02-27T15:18:52.816Z,3.10
2023-02-27T15:21:22.675Z,3.07
2023-02-27T15:23:57.721Z,2.96
2023-02-27T15:26:27.412Z,2.83
2023-02-27T15:28:59.884Z,2.71
2023-02-27T15:31:31.515Z,2.76
2023-02-27T15:34:01.473Z,2.65
2023-02-27T15:36:33.170Z,2.63
2023-02-27T15:39:15.458Z,2.59
2023-02-27T15:41:45.814Z,2.58
2023-02-27T15:44:17.004Z,2.52
2023-02-27T15:46:46.569Z,2.56
2023-02-27T15:49:18.929Z,2.58
2023-02-27T15:51:56.510Z,2.63
2023-02-27T15:54:24.692Z,2.64
2023-02-27T15:56:53.674Z,2.65
2023-02-27T15:59:23.103Z,2.53
2023-02-27T16:01:51.169Z,2.52
2023-02-27T16:04:25.388Z,2.42
2023-02-27T16:07:03.017Z,2.48
2023-02-27T16:09:33.820Z,2.42
2023-02-27T16:12:24.194Z,2.31
2023-02-27T16:14:54.741Z,2.34
2023-02-27T16:17:30.838Z,2.25
2023-02-27T16:20:02.062Z,2.35
2023-02-27T16:22:30.796Z,2.25
2023-02-27T16:25:09.703Z,2.33
2023-02-27T16:27:37.921Z,2.27
2023-02-27T16:30:12.986Z,2.18
2023-02-27T16:32:44.036Z,2.24
2023-02-27T16:35:19.282Z,2.20
2023-02-27T16:37:48.132Z,2.10
2023-02-27T16:40:18.183Z,2.15
2023-02-27T16:42:47.607Z,2.05
2023-02-27T16:45:19.046Z,2.17
2023-02-27T16:47:49.991Z,2.14
2023-02-27T16:50:22.115Z,2.06
2023-02-27T16:52:50.081Z,2.05
2023-02-27T16:55:18.460Z,2.01
2023-02-27T16:57:46.597Z,2.12
2023-02-27T17:00:20.429Z,2.04
2023-02-27T17:02:48.430Z,1.96
2023-02-27T17:05:16.822Z,2.09
2023-02-27T17:07:45.883Z,2.06
2023-02-27T17:10:17.930Z,1.95
2023-02-27T17:12:47.040Z,1.98
2023-02-27T17:15:16.743Z,1.92
2023-02-27T17:17:46.502Z,2.04
2023-02-27T17:20:15.878Z,1.98
2023-02-27T17:22:45.748Z,1.91
2023-02-27T17:25:14.841Z,2.00
2023-02-27T17:27:44.434Z,1.93
2023-02-27T17:30:14.146Z,1.89
2023-02-27T17:32:43.843Z,1.82
2023-02-27T17:35:12.375Z,1.82
2023-02-27T17:37:40.340Z,1.79
2023-02-27T17:40:09.841Z,1.78
2023-02-27T17:42:39.210Z,1.69
2023-02-27T17:45:09.485Z,1.89
2023-02-27T17:47:37.564Z,1.74
2023-02-27T17:50:07.861Z,1.71
2023-02-27T17:52:36.844Z,1.77
2023-02-27T17:55:06.990Z,1.71
2023-02-27T17:57:36.154Z,1.71
2023-02-27T18:00:05.775Z,1.68
2023-02-27T18:02:34.130Z,1.70
2023-02-27T18:05:02.322Z,1.64
2023-02-27T18:07:32.172Z,1.58
2023-02-27T18:10:00.254Z,1.58
2023-02-27T18:12:28.608Z,1.55
2023-02-27T18:14:57.357Z,1.55
2023-02-27T18:17:25.787Z,1.63
2023-02-27T18:19:55.281Z,1.63
2023-02-27T18:22:24.673Z,1.65
2023-02-27T18:24:55.709Z,1.54
2023-02-27T18:27:24.497Z,1.49
2023-02-27T18:29:52.456Z,1.45
2023-02-27T18:32:21.250Z,1.54
2023-02-27T18:34:49.416Z,1.41
2023-02-27T18:37:17.434Z,1.45
2023-02-27T18:39:45.806Z,1.44
2023-02-27T18:42:15.630Z,1.49
2023-02-27T18:44:43.612Z,1.44
2023-02-27T18:47:12.160Z,1.38
2023-02-27T18:49:40.151Z,1.43
2023-02-27T18:52:08.127Z,1.38
2023-02-27T18:54:36.239Z,1.33
2023-02-27T18:57:04.770Z,1.30
2023-02-27T18:59:34.225Z,1.28
2023-02-27T19:02:02.243Z,1.23
2023-02-27T19:04:33.980Z,1.20
2023-02-27T19:07:02.210Z,1.03
2023-02-27T19:09:32.811Z,1.09
2023-02-27T19:12:01.549Z,0.94
2023-02-27T19:14:29.808Z,0.83
2023-02-27T19:17:00.589Z,0.83
2023-02-27T19:19:28.945Z,0.81
2023-02-27T19:21:57.108Z,0.76
2023-02-27T19:24:25.445Z,0.75
2023-02-27T19:26:53.639Z,0.68
2023-02-27T19:29:22.433Z,0.64
2023-02-27T19:31:50.482Z,0.67
2023-02-27T19:34:19.952Z,0.58
2023-02-27T19:36:48.099Z,0.49
2023-02-27T19:39:16.012Z,0.50
2023-02-27T19:41:44.211Z,0.48
2023-02-27T19:44:12.961Z,0.45
2023-02-27T19:46:42.280Z,0.36
2023-02-27T19:49:12.177Z,0.45
2023-02-27T19:51:41.735Z,0.38
2023-02-27T19:54:14.697Z,0.50
2023-02-27T19:56:43.520Z,0.34
2023-02-27T19:59:12.811Z,0.26
2023-02-27T20:01:41.566Z,0.29
2023-02-27T20:04:11.263Z,0.25
2023-02-27T20:06:44.005Z,0.25
2023-02-27T20:09:15.374Z,0.20
2023-02-27T20:11:44.845Z,0.27
2023-02-27T20:14:14.096Z,0.32
2023-02-27T20:16:45.653Z,0.20
2023-02-27T20:19:16.600Z,0.18
2023-02-27T20:21:47.594Z,0.29
2023-02-27T20:24:18.839Z,0.07
2023-02-27T20:26:48.620Z,0.10
2023-02-27T20:29:19.162Z,0.15
2023-02-27T20:31:49.454Z,0.06
2023-02-27T20:34:22.799Z,0.07
2023-02-27T20:36:53.016Z,0.02
2023-02-27T20:39:22.716Z,0.01
2023-02-27T20:41:51.126Z,-0.02
2023-02-27T20:44:19.771Z,0.03
2023-02-27T20:46:49.400Z,-0.01
2023-02-27T20:49:17.949Z,-0.08
2023-02-27T20:51:46.480Z,-0.07
2023-02-27T20:54:20.789Z,-0.02
2023-02-27T20:56:51.897Z,-0.06
2023-02-27T20:59:23.652Z,-0.06
2023-02-27T21:01:55.398Z,-0.04
2023-02-27T21:04:26.190Z,-0.15
2023-02-27T21:06:55.865Z,-0.14
2023-02-27T21:09:25.217Z,-0.13
2023-02-27T21:11:53.095Z,-0.23
2023-02-27T21:14:24.173Z,-0.13
2023-02-27T21:16:52.381Z,-0.14
2023-02-27T21:19:21.759Z,-0.11
2023-02-27T21:21:49.750Z,-0.12
2023-02-27T21:24:17.827Z,-0.21
2023-02-27T21:26:47.198Z,-0.18
2023-02-27T21:29:17.363Z,-0.16
2023-02-27T21:31:49.242Z,-0.20
2023-02-27T21:34:20.923Z,-0.27
2023-02-27T21:36:49.487Z,-0.27
2023-02-27T21:39:20.254Z,-0.27
2023-02-27T21:41:50.365Z,-0.24
2023-02-27T21:44:20.614Z,-0.37
2023-02-27T21:46:49.333Z,-0.38
2023-02-27T21:49:19.521Z,-0.35
2023-02-27T21:51:48.286Z,-0.37
2023-02-27T21:54:18.155Z,-0.40
2023-02-27T21:56:48.198Z,-0.37
2023-02-27T21:59:19.060Z,-0.38
2023-02-27T22:01:48.407Z,-0.45
2023-02-27T22:04:16.769Z,-0.45
2023-02-27T22:06:45.096Z,-0.38
2023-02-27T22:09:13.338Z,-0.44
2023-02-27T22:11:41.913Z,-0.48
2023-02-27T22:14:10.592Z,-0.46
2023-02-27T22:16:39.987Z,-0.52
2023-02-27T22:19:08.017Z,-0.55
2023-02-27T22:21:37.098Z,-0.60
2023-02-27T22:24:05.896Z,-0.67
2023-02-27T22:26:34.620Z,-0.75
2023-02-27T22:29:03.056Z,-0.77
2023-02-27T22:31:33.323Z,-0.73
2023-02-27T22:34:08.260Z,-0.83
2023-02-27T22:36:37.351Z,-0.80
2023-02-27T22:39:06.505Z,-0.78
2023-02-27T22:41:36.181Z,-0.81
2023-02-27T22:44:05.287Z,-0.80
2023-02-27T22:46:35.025Z,-0.83
2023-02-27T22:49:07.299Z,-0.85
2023-02-27T22:51:35.995Z,-0.90
2023-02-27T22:54:06.687Z,-0.88
2023-02-27T22:56:36.584Z,-0.94
2023-02-27T22:59:05.103Z,-0.90
2023-02-27T23:01:35.053Z,-0.88
2023-02-27T23:04:06.943Z,-0.89
2023-02-27T23:06:37.495Z,-0.80
2023-02-27T23:09:07.243Z,-0.89
2023-02-27T23:11:35.763Z,-0.95
2023-02-27T23:14:03.980Z,-0.92
2023-02-27T23:16:32.281Z,-0.99
2023-02-27T23:19:01.494Z,-0.98
2023-02-27T23:21:34.573Z,-1.05
2023-02-27T23:24:04.713Z,-1.11
2023-02-27T23:26:32.691Z,-1.10
2023-02-27T23:29:00.587Z,-1.03
2023-02-27T23:31:34.167Z,-1.02
2023-02-27T23:34:03.904Z,-1.12
2023-02-27T23:36:34.166Z,-1.14
2023-02-27T23:39:02.961Z,-1.19
2023-02-27T23:41:31.487Z,-1.25
2023-02-27T23:44:01.530Z,-1.25
2023-02-27T23:46:30.563Z,-1.23
2023-02-27T23:48:59.470Z,-1.21
2023-02-27T23:51:30.293Z,-1.28
2023-02-27T23:54:00.447Z,-1.28
2023-02-27T23:56:29.962Z,-1.35
2023-02-27T23:59:00.153Z,-1.33
